BZL weather

Barisal Airport
Barisal, Barisal Division, Bangladesh

Public forecast

Using degrees Celsius for public forecast. Weather courtesy of forecast.io.

Closest aviation weather report (METAR) to Barisal Airport

Closest report is Hazrat Shahjalal International Airport, 62.8 nm (116.3 km) N. Retrieved 2020/04/08 05:30 UTC (27 minutes ago):

VGHS 080530Z 10008KT 3500 HZ SCT012 FEW025CB BKN100 29/24 Q1010 TEMPO TSRA

Closest aviation forecast (TAF) to Barisal Airport

Forecast is more than 6 hours old.

Closest forecast is Hazrat Shahjalal International Airport, 62.8 nm (116.3 km) N. Retrieved 2020/04/07 18:00 UTC (12 hours ago):

TAF VGHS 071700Z 0718/0824 16005KT 3500 HZ FEW015 SCT100 BECMG 0804/0806 20008KT 4000 HZ BECMG 0814/0816 16005KT 3500 HZ